createdAt,value
2018-08-30T00:01:31.113Z,11.07
2018-08-30T00:04:00.147Z,11.20
2018-08-30T00:06:30.476Z,12.30
2018-08-30T00:09:00.012Z,10.70
2018-08-30T00:11:29.077Z,11.87
2018-08-30T00:13:58.047Z,13.47
2018-08-30T00:16:27.006Z,14.60
2018-08-30T00:18:56.681Z,13.93
2018-08-30T00:21:25.768Z,15.30
2018-08-30T00:23:55.562Z,14.30
2018-08-30T00:26:24.693Z,14.57
2018-08-30T00:28:53.838Z,16.20
2018-08-30T00:31:23.365Z,17.67
2018-08-30T00:33:52.497Z,16.87
2018-08-30T00:36:21.641Z,18.50
2018-08-30T00:38:50.676Z,18.27
2018-08-30T00:41:19.783Z,18.87
2018-08-30T00:43:48.943Z,17.30
2018-08-30T00:46:18.094Z,17.40
2018-08-30T00:48:47.082Z,18.53
2018-08-30T00:51:17.467Z,17.90
2018-08-30T00:53:46.500Z,17.93
2018-08-30T00:56:15.535Z,16.83
2018-08-30T00:58:45.448Z,17.67
2018-08-30T01:01:15.187Z,18.57
2018-08-30T01:03:44.177Z,18.40
2018-08-30T01:06:13.232Z,18.30
2018-08-30T01:08:42.331Z,19.53
2018-08-30T01:13:59.353Z,18.80
2018-08-30T01:16:29.257Z,19.47
2018-08-30T01:18:59.523Z,18.70
2018-08-30T01:21:28.944Z,18.90
2018-08-30T01:23:58.730Z,19.93
2018-08-30T01:26:28.812Z,19.17
2018-08-30T01:28:58.536Z,18.43
2018-08-30T01:31:28.394Z,18.27
2018-08-30T01:33:58.146Z,18.60
2018-08-30T01:36:29.718Z,17.00
2018-08-30T01:38:58.970Z,17.10
2018-08-30T01:41:29.553Z,18.57
2018-08-30T01:46:40.775Z,18.30
2018-08-30T01:49:10.032Z,17.03
2018-08-30T01:51:39.053Z,15.83
2018-08-30T01:54:12.749Z,16.10
2018-08-30T01:56:41.898Z,15.73
2018-08-30T01:59:12.823Z,14.93
2018-08-30T02:01:42.404Z,15.10
2018-08-30T02:04:11.471Z,14.10
2018-08-30T02:06:40.649Z,15.83
2018-08-30T02:09:11.966Z,13.77
2018-08-30T02:11:42.844Z,14.67
2018-08-30T02:14:11.928Z,14.23
2018-08-30T02:16:47.210Z,14.40
2018-08-30T02:19:16.316Z,14.73
2018-08-30T02:21:45.386Z,15.97
2018-08-30T02:24:14.518Z,14.17
2018-08-30T02:26:43.796Z,14.40
2018-08-30T02:29:12.907Z,15.93
2018-08-30T02:31:41.996Z,15.73
2018-08-30T02:34:10.953Z,14.67
2018-08-30T02:36:46.156Z,15.67
2018-08-30T02:39:15.325Z,16.20
2018-08-30T02:41:44.330Z,16.30
2018-08-30T02:44:13.356Z,17.43
2018-08-30T02:46:43.421Z,16.63
2018-08-30T02:49:14.584Z,19.17
2018-08-30T02:51:43.641Z,18.90
2018-08-30T02:54:12.672Z,18.93
2018-08-30T02:56:56.006Z,19.30
2018-08-30T02:59:25.055Z,19.00
2018-08-30T03:01:54.097Z,19.33
2018-08-30T03:04:23.134Z,19.70
2018-08-30T03:06:53.938Z,20.43
2018-08-30T03:09:24.260Z,20.07
2018-08-30T03:11:53.441Z,19.40
2018-08-30T03:14:22.589Z,20.17
2018-08-30T03:16:51.649Z,21.77
2018-08-30T03:19:20.751Z,20.60
2018-08-30T03:21:52.031Z,20.60
2018-08-30T03:24:21.053Z,23.40
2018-08-30T03:26:53.761Z,22.63
2018-08-30T03:29:27.953Z,23.53
2018-08-30T03:31:59.394Z,25.10
2018-08-30T03:34:28.784Z,23.47
2018-08-30T03:37:03.379Z,25.83
2018-08-30T03:39:32.567Z,27.50
2018-08-30T03:42:01.714Z,26.07
2018-08-30T03:44:35.966Z,27.33
2018-08-30T03:47:08.364Z,25.93
2018-08-30T03:49:54.591Z,27.90
2018-08-30T03:52:24.083Z,30.00
2018-08-30T03:55:01.839Z,30.23
2018-08-30T03:57:35.821Z,29.80
2018-08-30T04:00:05.287Z,30.63
2018-08-30T04:02:37.445Z,30.63
2018-08-30T04:05:12.600Z,30.17
2018-08-30T04:07:42.119Z,30.20
2018-08-30T04:10:12.087Z,29.30
2018-08-30T04:13:00.706Z,29.57
2018-08-30T04:15:31.491Z,30.43
2018-08-30T04:18:00.636Z,28.63
2018-08-30T04:20:29.710Z,28.90
2018-08-30T04:23:04.997Z,27.70
2018-08-30T04:25:34.223Z,28.10
2018-08-30T04:28:03.226Z,25.43
2018-08-30T04:30:33.210Z,25.20
2018-08-30T04:33:03.101Z,21.17
2018-08-30T04:35:32.875Z,22.60
2018-08-30T04:38:02.613Z,21.00
2018-08-30T04:40:33.273Z,19.50
2018-08-30T04:43:07.876Z,18.20
2018-08-30T04:45:53.002Z,16.20
2018-08-30T04:48:23.264Z,5.40
2018-08-30T04:50:56.798Z,0.20
2018-08-30T04:53:33.154Z,0.20
2018-08-30T04:56:03.261Z,0.20
2018-08-30T04:58:33.087Z,0.20
2018-08-30T05:01:02.772Z,0.20
2018-08-30T05:03:32.526Z,0.20
2018-08-30T05:06:05.043Z,0.20
2018-08-30T05:08:34.140Z,0.20
2018-08-30T05:11:07.341Z,0.20
2018-08-30T05:13:37.623Z,0.20
2018-08-30T05:16:07.701Z,0.20
2018-08-30T05:21:53.958Z,0.20
2018-08-30T05:24:23.236Z,0.20
2018-08-30T05:26:52.554Z,1.90
2018-08-30T05:29:26.708Z,0.20
2018-08-30T05:31:56.039Z,0.20
2018-08-30T05:34:25.041Z,0.20
2018-08-30T05:37:07.279Z,0.20
2018-08-30T05:39:37.374Z,0.20
2018-08-30T05:42:07.067Z,0.20
2018-08-30T05:44:36.879Z,0.20
2018-08-30T05:47:06.913Z,0.20
2018-08-30T05:49:36.831Z,0.20
2018-08-30T05:52:06.863Z,0.20
2018-08-30T05:54:37.502Z,0.20
2018-08-30T05:57:07.570Z,0.20
2018-08-30T05:59:37.635Z,0.20
2018-08-30T06:02:07.398Z,0.20
2018-08-30T06:04:37.236Z,0.20
2018-08-30T06:07:09.109Z,0.20
2018-08-30T06:09:38.169Z,0.20
2018-08-30T06:12:07.453Z,0.20
2018-08-30T06:14:37.292Z,0.20
2018-08-30T06:17:07.435Z,0.40
2018-08-30T06:19:38.634Z,0.20
2018-08-30T06:22:08.541Z,0.20
2018-08-30T06:24:38.916Z,0.20
2018-08-30T06:27:14.917Z,0.20
2018-08-30T06:29:46.670Z,0.20
2018-08-30T06:32:15.726Z,0.20
2018-08-30T06:34:51.026Z,0.20
2018-08-30T06:37:20.411Z,0.20
2018-08-30T06:39:49.537Z,0.20
2018-08-30T06:42:18.655Z,0.20
2018-08-30T06:44:47.741Z,0.20
2018-08-30T06:47:16.767Z,0.20
2018-08-30T06:49:45.835Z,0.20
2018-08-30T06:52:14.934Z,0.20
2018-08-30T06:54:44.097Z,0.20
2018-08-30T06:57:13.089Z,0.20
2018-08-30T07:00:00.241Z,0.20
2018-08-30T07:02:40.615Z,0.20
2018-08-30T07:05:10.272Z,0.20
2018-08-30T07:07:39.301Z,0.20
2018-08-30T07:10:08.358Z,0.20
2018-08-30T07:12:38.173Z,0.20
2018-08-30T07:15:08.060Z,0.20
2018-08-30T07:17:37.292Z,0.20
2018-08-30T07:20:07.450Z,0.20
2018-08-30T07:22:36.699Z,0.20
2018-08-30T07:25:08.918Z,0.20
2018-08-30T07:27:37.919Z,0.20
2018-08-30T07:30:10.138Z,0.20
2018-08-30T07:32:39.159Z,0.20
2018-08-30T07:35:08.299Z,0.20
2018-08-30T07:37:37.351Z,0.20
2018-08-30T07:40:06.829Z,0.20
2018-08-30T07:42:36.343Z,0.20
2018-08-30T07:45:07.697Z,0.40
2018-08-30T07:47:37.364Z,0.20
2018-08-30T07:50:07.408Z,0.20
2018-08-30T07:52:37.197Z,0.20
2018-08-30T07:55:08.285Z,0.20
2018-08-30T07:57:37.381Z,0.20
2018-08-30T08:00:07.231Z,0.20
2018-08-30T08:02:36.800Z,0.20
2018-08-30T08:05:07.462Z,0.20
2018-08-30T08:07:37.416Z,0.20
2018-08-30T08:10:06.579Z,0.30
2018-08-30T08:12:35.728Z,0.20
2018-08-30T08:15:05.297Z,0.67
2018-08-30T08:17:34.486Z,0.20
2018-08-30T08:20:04.582Z,0.20
2018-08-30T08:22:34.244Z,0.20
2018-08-30T08:25:04.844Z,0.20
2018-08-30T08:27:34.982Z,0.20
2018-08-30T08:30:06.679Z,0.20
2018-08-30T08:32:35.702Z,0.20
2018-08-30T08:35:05.946Z,0.20
2018-08-30T08:37:35.508Z,0.20
2018-08-30T08:40:05.178Z,0.20
2018-08-30T08:42:34.699Z,0.20
2018-08-30T08:45:10.656Z,0.20
2018-08-30T08:47:39.628Z,0.20
2018-08-30T08:50:08.625Z,0.20
2018-08-30T08:52:37.570Z,0.40
2018-08-30T08:55:06.810Z,0.20
2018-08-30T08:57:35.858Z,0.20
2018-08-30T09:00:05.627Z,0.20
2018-08-30T09:02:35.394Z,0.20
2018-08-30T09:05:05.270Z,0.20
2018-08-30T09:07:34.858Z,0.20
2018-08-30T09:10:04.987Z,0.20
2018-08-30T09:12:35.002Z,0.20
2018-08-30T09:15:05.070Z,0.20
2018-08-30T09:17:34.780Z,0.20
2018-08-30T09:20:04.946Z,0.20
2018-08-30T09:22:34.735Z,0.20
2018-08-30T09:25:04.719Z,0.20
2018-08-30T09:27:34.289Z,0.20
2018-08-30T09:30:04.450Z,0.20
2018-08-30T09:32:34.808Z,0.20
2018-08-30T09:35:05.052Z,0.20
2018-08-30T09:37:34.791Z,0.20
2018-08-30T09:40:04.558Z,0.20
2018-08-30T09:42:34.410Z,0.20
2018-08-30T09:45:04.442Z,0.20
2018-08-30T09:47:34.204Z,0.20
2018-08-30T09:50:04.451Z,0.20
2018-08-30T09:52:34.318Z,0.20
2018-08-30T09:55:06.305Z,0.20
2018-08-30T09:57:35.585Z,0.20
2018-08-30T10:00:05.196Z,0.20
2018-08-30T10:02:39.527Z,0.20
2018-08-30T10:05:09.750Z,0.20
2018-08-30T10:07:38.846Z,0.20
2018-08-30T10:10:08.128Z,0.20
2018-08-30T10:12:38.510Z,0.20
2018-08-30T10:15:08.429Z,0.20
2018-08-30T10:17:37.494Z,0.20
2018-08-30T10:20:06.841Z,0.20
2018-08-30T10:22:35.935Z,0.20
2018-08-30T10:25:05.015Z,0.20
2018-08-30T10:27:34.130Z,0.20
2018-08-30T10:30:03.453Z,0.20
2018-08-30T10:32:33.505Z,0.30
2018-08-30T10:35:03.119Z,0.20
2018-08-30T10:37:32.783Z,0.20
2018-08-30T10:40:03.155Z,0.20
2018-08-30T10:42:33.044Z,0.20
2018-08-30T10:45:02.928Z,0.20
2018-08-30T10:47:33.497Z,0.20
2018-08-30T10:50:03.719Z,0.20
2018-08-30T10:52:32.822Z,0.20
2018-08-30T10:55:03.023Z,0.20
2018-08-30T10:57:32.690Z,0.20
2018-08-30T11:00:04.425Z,0.20
2018-08-30T11:02:33.954Z,0.20
2018-08-30T11:05:03.070Z,0.20
2018-08-30T11:07:32.514Z,0.20
2018-08-30T11:10:02.178Z,0.20
2018-08-30T11:12:31.275Z,0.20
2018-08-30T11:15:00.823Z,0.20
2018-08-30T11:17:31.271Z,0.20
2018-08-30T11:20:01.426Z,0.20
2018-08-30T11:22:31.187Z,0.20
2018-08-30T11:25:02.142Z,0.20
2018-08-30T11:27:31.398Z,2.30
2018-08-30T11:30:01.269Z,0.20
2018-08-30T11:32:31.041Z,0.20
2018-08-30T11:35:01.188Z,0.20
2018-08-30T11:37:30.745Z,0.20
2018-08-30T11:40:00.397Z,0.20
2018-08-30T11:42:30.114Z,0.20
2018-08-30T11:45:00.698Z,0.20
2018-08-30T11:47:31.352Z,0.20
2018-08-30T11:50:01.242Z,0.20
2018-08-30T11:52:32.830Z,0.20
2018-08-30T11:55:02.412Z,0.20
2018-08-30T11:57:31.548Z,7.57
2018-08-30T12:00:01.225Z,8.83
2018-08-30T12:02:31.034Z,7.47
2018-08-30T12:05:01.914Z,8.37
2018-08-30T12:07:35.734Z,8.70
2018-08-30T12:10:06.409Z,9.70
2018-08-30T12:12:41.821Z,8.80
2018-08-30T12:15:10.974Z,9.40
2018-08-30T12:17:40.061Z,9.27
2018-08-30T12:20:09.153Z,8.23
2018-08-30T12:22:38.313Z,8.80
2018-08-30T12:25:07.993Z,9.13
2018-08-30T12:27:37.097Z,8.00
2018-08-30T12:30:06.404Z,8.80
2018-08-30T12:32:35.695Z,8.00
2018-08-30T12:35:04.981Z,7.57
2018-08-30T12:37:34.055Z,7.10
2018-08-30T12:40:03.303Z,7.80
2018-08-30T12:42:32.525Z,7.40
2018-08-30T12:45:01.649Z,7.07
2018-08-30T12:47:31.303Z,8.00
2018-08-30T12:50:01.125Z,9.27
2018-08-30T12:52:31.060Z,7.90
2018-08-30T12:55:02.199Z,7.67
2018-08-30T12:57:31.909Z,7.50
2018-08-30T13:00:01.797Z,7.37
2018-08-30T13:02:31.350Z,6.77
2018-08-30T13:05:02.621Z,6.63
2018-08-30T13:07:32.663Z,5.47
2018-08-30T13:10:01.953Z,6.80
2018-08-30T13:12:31.851Z,6.57
2018-08-30T13:15:04.751Z,7.80
2018-08-30T13:17:34.246Z,7.63
2018-08-30T13:20:05.038Z,8.50
2018-08-30T13:22:34.802Z,8.40
2018-08-30T13:25:03.935Z,8.93
2018-08-30T13:27:32.928Z,9.87
2018-08-30T13:30:02.157Z,9.83
2018-08-30T13:32:31.443Z,9.80
2018-08-30T13:35:01.982Z,9.83
2018-08-30T13:37:31.505Z,9.70
2018-08-30T13:40:01.593Z,9.00
2018-08-30T13:42:31.834Z,9.23
2018-08-30T13:45:01.541Z,8.83
2018-08-30T13:47:31.417Z,8.43
2018-08-30T13:50:01.093Z,9.27
2018-08-30T13:52:32.946Z,8.57
2018-08-30T13:55:02.238Z,8.10
2018-08-30T13:57:32.110Z,7.70
2018-08-30T14:00:01.793Z,8.73
2018-08-30T14:02:31.106Z,9.10
2018-08-30T14:05:01.179Z,8.17
2018-08-30T14:07:30.552Z,7.07
2018-08-30T14:10:01.565Z,6.63
2018-08-30T14:12:31.277Z,6.20
2018-08-30T14:15:00.651Z,7.40
2018-08-30T14:17:30.290Z,6.80
2018-08-30T14:20:00.031Z,6.93
2018-08-30T14:22:29.955Z,7.07
2018-08-30T14:24:59.897Z,6.50
2018-08-30T14:27:29.904Z,5.73
2018-08-30T14:29:59.706Z,5.20
2018-08-30T14:32:29.487Z,5.27
2018-08-30T14:34:59.818Z,5.33
2018-08-30T14:37:29.570Z,6.47
2018-08-30T14:39:59.779Z,4.77
2018-08-30T14:42:29.477Z,5.80
2018-08-30T14:44:59.259Z,4.50
2018-08-30T14:47:29.248Z,4.40
2018-08-30T14:49:58.770Z,3.63
2018-08-30T14:52:28.803Z,3.87
2018-08-30T14:54:59.820Z,3.87
2018-08-30T14:57:32.468Z,3.47
2018-08-30T15:00:01.540Z,2.90
2018-08-30T15:02:30.544Z,2.67
2018-08-30T15:05:00.182Z,2.93
2018-08-30T15:07:30.628Z,2.70
2018-08-30T15:10:01.775Z,3.20
2018-08-30T15:12:32.916Z,3.27
2018-08-30T15:15:03.318Z,3.20
2018-08-30T15:17:32.863Z,2.90
2018-08-30T15:20:02.199Z,2.33
2018-08-30T15:22:31.356Z,2.47
2018-08-30T15:25:00.948Z,2.67
2018-08-30T15:27:30.838Z,4.27
2018-08-30T15:30:03.360Z,3.37
2018-08-30T15:32:32.609Z,2.57
2018-08-30T15:35:01.729Z,2.83
2018-08-30T15:37:30.940Z,3.00
2018-08-30T15:40:00.686Z,1.87
2018-08-30T15:42:30.318Z,2.43
2018-08-30T15:44:59.982Z,2.10
2018-08-30T15:47:29.798Z,2.13
2018-08-30T15:49:59.994Z,1.63
2018-08-30T15:52:29.966Z,2.13
2018-08-30T15:55:01.083Z,3.03
2018-08-30T15:57:30.962Z,2.27
2018-08-30T16:00:00.900Z,2.20
2018-08-30T16:02:30.802Z,1.50
2018-08-30T16:05:00.777Z,2.80
2018-08-30T16:07:30.358Z,2.60
2018-08-30T16:10:00.345Z,2.50
2018-08-30T16:12:30.149Z,2.40
2018-08-30T16:14:59.970Z,2.70
2018-08-30T16:17:29.865Z,1.80
2018-08-30T16:19:58.956Z,2.10
2018-08-30T16:22:39.901Z,2.17
2018-08-30T16:25:09.400Z,1.50
2018-08-30T16:27:38.486Z,2.10
2018-08-30T16:30:07.695Z,1.70
2018-08-30T16:32:36.993Z,1.93
2018-08-30T16:35:06.102Z,1.67
2018-08-30T16:37:35.110Z,2.10
2018-08-30T16:40:04.300Z,2.63
2018-08-30T16:42:35.319Z,2.10
2018-08-30T16:45:06.011Z,2.13
2018-08-30T16:47:35.111Z,2.20
2018-08-30T16:50:04.562Z,1.27
2018-08-30T16:52:37.759Z,1.60
2018-08-30T16:55:09.113Z,1.67
2018-08-30T16:57:38.947Z,1.93
2018-08-30T17:00:08.387Z,1.90
2018-08-30T17:02:37.385Z,1.80
2018-08-30T17:05:10.348Z,2.20
2018-08-30T17:07:40.260Z,1.80
2018-08-30T17:10:09.986Z,1.93
2018-08-30T17:12:40.480Z,1.83
2018-08-30T17:15:10.608Z,1.80
2018-08-30T17:17:41.473Z,1.50
2018-08-30T17:20:13.314Z,2.03
2018-08-30T17:22:56.902Z,2.50
2018-08-30T17:25:29.306Z,1.80
2018-08-30T17:28:02.140Z,1.90
2018-08-30T17:30:43.949Z,1.87
2018-08-30T17:36:22.067Z,1.37
2018-08-30T17:38:56.973Z,1.87
2018-08-30T17:41:27.594Z,1.53
2018-08-30T17:43:57.799Z,1.70
2018-08-30T17:46:28.556Z,2.37
2018-08-30T17:48:58.583Z,1.47
2018-08-30T17:51:29.587Z,1.70
2018-08-30T17:53:58.797Z,1.60
2018-08-30T17:56:28.253Z,2.07
2018-08-30T17:59:32.118Z,1.80
2018-08-30T18:02:01.211Z,1.40
2018-08-30T18:04:34.500Z,2.00
2018-08-30T18:07:32.782Z,1.60
2018-08-30T18:10:03.388Z,2.20
2018-08-30T18:15:18.806Z,1.87
2018-08-30T18:17:48.760Z,2.47
2018-08-30T18:20:25.929Z,2.03
2018-08-30T18:22:58.286Z,1.67
2018-08-30T18:25:28.091Z,1.93
2018-08-30T18:27:58.397Z,1.80
2018-08-30T18:30:27.378Z,1.80
2018-08-30T18:32:57.547Z,2.53
2018-08-30T18:35:27.797Z,2.07
2018-08-30T18:37:59.290Z,1.70
2018-08-30T18:40:28.340Z,2.23
2018-08-30T18:42:57.513Z,2.03
2018-08-30T18:45:27.413Z,2.10
2018-08-30T18:47:56.937Z,1.80
2018-08-30T18:50:26.383Z,2.67
2018-08-30T18:52:56.519Z,2.17
2018-08-30T18:55:26.430Z,1.23
2018-08-30T18:57:56.241Z,2.00
2018-08-30T19:00:25.646Z,1.90
2018-08-30T19:02:55.606Z,1.93
2018-08-30T19:05:26.800Z,1.80
2018-08-30T19:07:57.594Z,2.17
2018-08-30T19:10:26.841Z,1.97
2018-08-30T19:12:57.338Z,1.80
2018-08-30T19:15:33.535Z,2.40
2018-08-30T19:18:07.938Z,2.00
2018-08-30T19:20:37.186Z,1.67
2018-08-30T19:23:06.350Z,1.60
2018-08-30T19:25:36.075Z,2.30
2018-08-30T19:28:05.204Z,1.77
2018-08-30T19:30:34.320Z,2.60
2018-08-30T19:33:03.410Z,2.30
2018-08-30T19:35:37.566Z,1.87
2018-08-30T19:38:06.816Z,2.10
2018-08-30T19:43:25.828Z,2.27
2018-08-30T19:45:55.507Z,3.30
2018-08-30T19:48:25.203Z,1.53
2018-08-30T19:50:56.036Z,1.50
2018-08-30T19:53:26.404Z,1.37
2018-08-30T19:55:56.229Z,1.40
2018-08-30T19:58:26.313Z,1.47
2018-08-30T20:00:56.106Z,1.60
2018-08-30T20:03:26.225Z,1.80
2018-08-30T20:05:56.203Z,2.33
2018-08-30T20:08:26.000Z,1.60
2018-08-30T20:10:57.920Z,1.80
2018-08-30T20:13:29.825Z,1.90
2018-08-30T20:16:01.575Z,1.70
2018-08-30T20:18:37.234Z,1.50
2018-08-30T20:21:07.345Z,1.50
2018-08-30T20:23:45.382Z,1.97
2018-08-30T20:26:16.278Z,1.40
2018-08-30T20:28:51.737Z,1.77
2018-08-30T20:31:34.490Z,2.00
2018-08-30T20:34:04.378Z,4.40
2018-08-30T20:36:33.610Z,2.20
2018-08-30T20:39:06.223Z,1.60
2018-08-30T20:41:35.561Z,2.03
2018-08-30T20:44:05.218Z,1.93
2018-08-30T20:46:37.085Z,1.30
2018-08-30T20:49:07.298Z,2.00
2018-08-30T20:51:38.096Z,3.00
2018-08-30T20:54:07.297Z,2.00
2018-08-30T20:56:36.851Z,2.00
2018-08-30T20:59:09.601Z,1.87
2018-08-30T21:01:49.947Z,2.17
2018-08-30T21:04:27.333Z,2.00
2018-08-30T21:06:58.816Z,1.80
2018-08-30T21:09:28.726Z,1.53
2018-08-30T21:11:59.479Z,1.70
2018-08-30T21:14:37.070Z,1.47
2018-08-30T21:17:07.768Z,1.90
2018-08-30T21:19:37.023Z,1.50
2018-08-30T21:22:06.563Z,1.67
2018-08-30T21:27:23.329Z,1.67
2018-08-30T21:29:53.105Z,1.40
2018-08-30T21:32:23.488Z,1.87
2018-08-30T21:34:53.418Z,1.80
2018-08-30T21:37:25.652Z,1.83
2018-08-30T21:40:02.083Z,1.10
2018-08-30T21:42:32.375Z,2.27
2018-08-30T21:45:18.437Z,1.70
2018-08-30T21:47:48.861Z,1.40
2018-08-30T21:50:17.897Z,1.70
2018-08-30T21:52:55.726Z,1.53
2018-08-30T21:55:27.808Z,1.70
2018-08-30T21:57:56.972Z,1.73
2018-08-30T22:00:34.698Z,1.83
2018-08-30T22:03:04.941Z,1.40
2018-08-30T22:05:35.063Z,2.33
2018-08-30T22:08:04.688Z,1.70
2018-08-30T22:10:36.072Z,1.90
2018-08-30T22:13:05.242Z,1.40
2018-08-30T22:15:36.710Z,2.30
2018-08-30T22:18:07.171Z,1.27
2018-08-30T22:20:36.271Z,1.90
2018-08-30T22:23:14.147Z,1.83
2018-08-30T22:25:43.199Z,2.10
2018-08-30T22:28:12.577Z,1.27
2018-08-30T22:30:41.561Z,1.43
2018-08-30T22:33:10.623Z,1.80
2018-08-30T22:35:39.678Z,1.60
2018-08-30T22:38:09.107Z,1.80
2018-08-30T22:40:38.224Z,2.10
2018-08-30T22:43:07.272Z,2.00
2018-08-30T22:45:36.271Z,1.70
2018-08-30T22:48:06.139Z,2.03
2018-08-30T22:50:35.428Z,2.00
2018-08-30T22:53:05.918Z,1.23
2018-08-30T22:55:35.650Z,2.20
2018-08-30T22:58:26.645Z,1.80
2018-08-30T23:01:03.609Z,1.40
2018-08-30T23:03:32.597Z,1.80
2018-08-30T23:06:01.665Z,1.67
2018-08-30T23:08:30.828Z,2.03
2018-08-30T23:11:02.163Z,1.90
2018-08-30T23:13:32.423Z,1.67
2018-08-30T23:16:02.339Z,2.50
2018-08-30T23:18:31.885Z,2.20
2018-08-30T23:21:01.075Z,1.97
2018-08-30T23:23:31.738Z,1.97
2018-08-30T23:26:00.776Z,2.30
2018-08-30T23:28:29.801Z,2.17
2018-08-30T23:30:58.774Z,2.30
2018-08-30T23:33:29.630Z,2.30
2018-08-30T23:35:58.658Z,1.83
2018-08-30T23:38:28.335Z,1.63
2018-08-30T23:41:06.560Z,1.87
2018-08-30T23:43:35.766Z,1.77
2018-08-30T23:46:05.010Z,1.90
2018-08-30T23:48:34.191Z,1.77
2018-08-30T23:51:09.325Z,1.37
2018-08-30T23:53:38.967Z,2.73
2018-08-30T23:56:08.197Z,1.57
2018-08-30T23:58:48.361Z,1.93
